sensor_id;sensor_type;location;lat;lon;timestamp;P1;durP1;ratioP1;P2;durP2;ratioP2
2638;SDS011;1329;51.384;7.122;2022-07-18T00:01:21;1.40;;;1.30;;
2638;SDS011;1329;51.384;7.122;2022-07-18T00:03:48;2.05;;;1.50;;
2638;SDS011;1329;51.384;7.122;2022-07-18T00:06:15;1.88;;;1.48;;
2638;SDS011;1329;51.384;7.122;2022-07-18T00:08:42;1.77;;;1.58;;
2638;SDS011;1329;51.384;7.122;2022-07-18T00:11:09;1.70;;;1.58;;
2638;SDS011;1329;51.384;7.122;2022-07-18T00:13:38;2.25;;;1.60;;
2638;SDS011;1329;51.384;7.122;2022-07-18T00:16:05;2.25;;;1.50;;
2638;SDS011;1329;51.384;7.122;2022-07-18T00:18:33;1.88;;;1.45;;
2638;SDS011;1329;51.384;7.122;2022-07-18T00:21:01;1.85;;;1.70;;
2638;SDS011;1329;51.384;7.122;2022-07-18T00:23:28;2.28;;;1.35;;
2638;SDS011;1329;51.384;7.122;2022-07-18T00:25:55;1.52;;;1.40;;
2638;SDS011;1329;51.384;7.122;2022-07-18T00:28:22;3.10;;;1.55;;
2638;SDS011;1329;51.384;7.122;2022-07-18T00:30:51;2.08;;;1.35;;
2638;SDS011;1329;51.384;7.122;2022-07-18T00:33:18;1.40;;;1.30;;
2638;SDS011;1329;51.384;7.122;2022-07-18T00:35:46;1.83;;;1.48;;
2638;SDS011;1329;51.384;7.122;2022-07-18T00:38:17;1.50;;;1.40;;
2638;SDS011;1329;51.384;7.122;2022-07-18T00:40:44;1.40;;;1.30;;
2638;SDS011;1329;51.384;7.122;2022-07-18T00:43:12;2.00;;;1.25;;
2638;SDS011;1329;51.384;7.122;2022-07-18T00:45:39;2.45;;;1.65;;
2638;SDS011;1329;51.384;7.122;2022-07-18T00:48:12;1.60;;;1.20;;
2638;SDS011;1329;51.384;7.122;2022-07-18T00:50:39;1.67;;;1.23;;
2638;SDS011;1329;51.384;7.122;2022-07-18T00:53:08;1.55;;;1.38;;
2638;SDS011;1329;51.384;7.122;2022-07-18T00:55:37;1.50;;;1.40;;
2638;SDS011;1329;51.384;7.122;2022-07-18T00:58:06;2.08;;;1.50;;
2638;SDS011;1329;51.384;7.122;2022-07-18T01:00:34;1.92;;;1.50;;
2638;SDS011;1329;51.384;7.122;2022-07-18T01:03:23;2.83;;;1.40;;
2638;SDS011;1329;51.384;7.122;2022-07-18T01:05:50;1.55;;;1.38;;
2638;SDS011;1329;51.384;7.122;2022-07-18T01:08:18;1.33;;;1.23;;
2638;SDS011;1329;51.384;7.122;2022-07-18T01:10:45;3.33;;;1.50;;
2638;SDS011;1329;51.384;7.122;2022-07-18T01:13:13;1.50;;;1.30;;
2638;SDS011;1329;51.384;7.122;2022-07-18T01:15:40;3.58;;;1.25;;
2638;SDS011;1329;51.384;7.122;2022-07-18T01:18:07;1.92;;;1.30;;
2638;SDS011;1329;51.384;7.122;2022-07-18T01:20:36;1.83;;;1.27;;
2638;SDS011;1329;51.384;7.122;2022-07-18T01:23:03;2.28;;;1.30;;
2638;SDS011;1329;51.384;7.122;2022-07-18T01:25:31;1.55;;;1.38;;
2638;SDS011;1329;51.384;7.122;2022-07-18T01:27:58;1.58;;;1.30;;
2638;SDS011;1329;51.384;7.122;2022-07-18T01:30:26;2.17;;;1.20;;
2638;SDS011;1329;51.384;7.122;2022-07-18T01:32:54;1.45;;;1.35;;
2638;SDS011;1329;51.384;7.122;2022-07-18T01:35:23;1.73;;;1.20;;
2638;SDS011;1329;51.384;7.122;2022-07-18T01:37:53;1.73;;;1.20;;
2638;SDS011;1329;51.384;7.122;2022-07-18T01:40:24;3.22;;;1.20;;
2638;SDS011;1329;51.384;7.122;2022-07-18T01:42:52;1.42;;;1.20;;
2638;SDS011;1329;51.384;7.122;2022-07-18T01:45:19;2.35;;;1.30;;
2638;SDS011;1329;51.384;7.122;2022-07-18T01:47:47;1.20;;;1.10;;
2638;SDS011;1329;51.384;7.122;2022-07-18T01:50:15;1.40;;;1.30;;
2638;SDS011;1329;51.384;7.122;2022-07-18T01:52:43;1.40;;;1.17;;
2638;SDS011;1329;51.384;7.122;2022-07-18T01:55:12;1.77;;;1.50;;
2638;SDS011;1329;51.384;7.122;2022-07-18T01:57:39;1.50;;;1.25;;
2638;SDS011;1329;51.384;7.122;2022-07-18T02:00:07;1.48;;;1.30;;
2638;SDS011;1329;51.384;7.122;2022-07-18T02:02:37;1.88;;;1.08;;
2638;SDS011;1329;51.384;7.122;2022-07-18T02:05:05;1.30;;;1.20;;
2638;SDS011;1329;51.384;7.122;2022-07-18T02:07:34;1.60;;;1.45;;
2638;SDS011;1329;51.384;7.122;2022-07-18T02:10:06;2.08;;;1.27;;
2638;SDS011;1329;51.384;7.122;2022-07-18T02:12:41;1.40;;;1.25;;
2638;SDS011;1329;51.384;7.122;2022-07-18T02:15:09;1.95;;;1.25;;
2638;SDS011;1329;51.384;7.122;2022-07-18T02:17:38;1.45;;;1.20;;
2638;SDS011;1329;51.384;7.122;2022-07-18T02:20:09;1.30;;;1.10;;
2638;SDS011;1329;51.384;7.122;2022-07-18T02:22:38;2.30;;;1.20;;
2638;SDS011;1329;51.384;7.122;2022-07-18T02:25:06;1.30;;;1.20;;
2638;SDS011;1329;51.384;7.122;2022-07-18T02:27:36;1.67;;;1.30;;
2638;SDS011;1329;51.384;7.122;2022-07-18T02:30:04;1.65;;;1.13;;
2638;SDS011;1329;51.384;7.122;2022-07-18T02:32:36;1.15;;;1.05;;
2638;SDS011;1329;51.384;7.122;2022-07-18T02:35:04;1.98;;;1.30;;
2638;SDS011;1329;51.384;7.122;2022-07-18T02:37:33;1.55;;;1.20;;
2638;SDS011;1329;51.384;7.122;2022-07-18T02:40:03;1.98;;;1.20;;
2638;SDS011;1329;51.384;7.122;2022-07-18T02:42:33;1.48;;;1.30;;
2638;SDS011;1329;51.384;7.122;2022-07-18T02:45:02;1.00;;;1.00;;
2638;SDS011;1329;51.384;7.122;2022-07-18T02:47:48;1.20;;;1.10;;
2638;SDS011;1329;51.384;7.122;2022-07-18T02:50:16;1.30;;;1.20;;
2638;SDS011;1329;51.384;7.122;2022-07-18T02:52:43;1.52;;;1.20;;
2638;SDS011;1329;51.384;7.122;2022-07-18T02:55:11;2.15;;;1.33;;
2638;SDS011;1329;51.384;7.122;2022-07-18T02:57:40;1.92;;;1.00;;
2638;SDS011;1329;51.384;7.122;2022-07-18T03:00:09;1.25;;;1.15;;
2638;SDS011;1329;51.384;7.122;2022-07-18T03:02:40;1.40;;;1.30;;
2638;SDS011;1329;51.384;7.122;2022-07-18T03:05:08;1.35;;;1.23;;
2638;SDS011;1329;51.384;7.122;2022-07-18T03:07:36;1.30;;;1.20;;
2638;SDS011;1329;51.384;7.122;2022-07-18T03:10:04;1.73;;;1.30;;
2638;SDS011;1329;51.384;7.122;2022-07-18T03:12:33;2.22;;;1.40;;
2638;SDS011;1329;51.384;7.122;2022-07-18T03:15:00;3.13;;;1.25;;
2638;SDS011;1329;51.384;7.122;2022-07-18T03:17:31;1.20;;;1.10;;
2638;SDS011;1329;51.384;7.122;2022-07-18T03:19:58;1.23;;;1.13;;
2638;SDS011;1329;51.384;7.122;2022-07-18T03:22:26;1.30;;;1.20;;
2638;SDS011;1329;51.384;7.122;2022-07-18T03:24:53;1.52;;;1.10;;
2638;SDS011;1329;51.384;7.122;2022-07-18T03:27:20;2.45;;;1.33;;
2638;SDS011;1329;51.384;7.122;2022-07-18T03:29:48;1.20;;;1.10;;
2638;SDS011;1329;51.384;7.122;2022-07-18T03:32:15;2.08;;;1.10;;
2638;SDS011;1329;51.384;7.122;2022-07-18T03:34:44;1.75;;;1.10;;
2638;SDS011;1329;51.384;7.122;2022-07-18T03:37:11;1.27;;;1.10;;
2638;SDS011;1329;51.384;7.122;2022-07-18T03:39:39;1.63;;;1.20;;
2638;SDS011;1329;51.384;7.122;2022-07-18T03:42:08;1.42;;;1.20;;
2638;SDS011;1329;51.384;7.122;2022-07-18T03:44:35;1.30;;;1.20;;
2638;SDS011;1329;51.384;7.122;2022-07-18T03:47:03;2.22;;;1.15;;
2638;SDS011;1329;51.384;7.122;2022-07-18T03:49:30;1.73;;;1.40;;
2638;SDS011;1329;51.384;7.122;2022-07-18T03:51:59;1.40;;;1.30;;
2638;SDS011;1329;51.384;7.122;2022-07-18T03:54:26;1.50;;;1.40;;
2638;SDS011;1329;51.384;7.122;2022-07-18T03:56:53;1.50;;;1.40;;
2638;SDS011;1329;51.384;7.122;2022-07-18T03:59:20;1.63;;;1.35;;
2638;SDS011;1329;51.384;7.122;2022-07-18T04:01:50;1.45;;;1.30;;
2638;SDS011;1329;51.384;7.122;2022-07-18T04:04:23;2.08;;;1.30;;
2638;SDS011;1329;51.384;7.122;2022-07-18T04:06:52;1.92;;;1.35;;
2638;SDS011;1329;51.384;7.122;2022-07-18T04:09:25;1.90;;;1.40;;
2638;SDS011;1329;51.384;7.122;2022-07-18T04:11:53;2.67;;;1.83;;
2638;SDS011;1329;51.384;7.122;2022-07-18T04:14:21;2.95;;;1.60;;
2638;SDS011;1329;51.384;7.122;2022-07-18T04:16:48;2.08;;;1.67;;
2638;SDS011;1329;51.384;7.122;2022-07-18T04:19:16;2.63;;;1.95;;
2638;SDS011;1329;51.384;7.122;2022-07-18T04:21:43;1.83;;;1.70;;
2638;SDS011;1329;51.384;7.122;2022-07-18T04:24:14;1.80;;;1.40;;
2638;SDS011;1329;51.384;7.122;2022-07-18T04:26:43;2.45;;;1.73;;
2638;SDS011;1329;51.384;7.122;2022-07-18T04:29:11;1.90;;;1.70;;
2638;SDS011;1329;51.384;7.122;2022-07-18T04:31:38;2.42;;;1.80;;
2638;SDS011;1329;51.384;7.122;2022-07-18T04:34:05;3.08;;;2.00;;
2638;SDS011;1329;51.384;7.122;2022-07-18T04:36:33;4.20;;;2.00;;
2638;SDS011;1329;51.384;7.122;2022-07-18T04:39:00;2.80;;;1.92;;
2638;SDS011;1329;51.384;7.122;2022-07-18T04:41:27;4.40;;;3.42;;
2638;SDS011;1329;51.384;7.122;2022-07-18T04:43:56;2.97;;;2.17;;
2638;SDS011;1329;51.384;7.122;2022-07-18T04:46:26;5.60;;;4.50;;
2638;SDS011;1329;51.384;7.122;2022-07-18T04:48:58;3.88;;;2.70;;
2638;SDS011;1329;51.384;7.122;2022-07-18T04:51:25;5.82;;;4.32;;
2638;SDS011;1329;51.384;7.122;2022-07-18T04:53:52;8.77;;;6.85;;
2638;SDS011;1329;51.384;7.122;2022-07-18T04:56:20;9.75;;;6.90;;
2638;SDS011;1329;51.384;7.122;2022-07-18T04:58:48;5.28;;;3.55;;
2638;SDS011;1329;51.384;7.122;2022-07-18T05:01:17;6.93;;;4.63;;
2638;SDS011;1329;51.384;7.122;2022-07-18T05:03:44;9.45;;;5.50;;
2638;SDS011;1329;51.384;7.122;2022-07-18T05:06:12;6.60;;;5.20;;
2638;SDS011;1329;51.384;7.122;2022-07-18T05:08:39;6.43;;;5.13;;
2638;SDS011;1329;51.384;7.122;2022-07-18T05:11:07;8.10;;;5.10;;
2638;SDS011;1329;51.384;7.122;2022-07-18T05:13:34;7.45;;;4.88;;
2638;SDS011;1329;51.384;7.122;2022-07-18T05:16:02;6.07;;;3.92;;
2638;SDS011;1329;51.384;7.122;2022-07-18T05:18:31;6.05;;;3.60;;
2638;SDS011;1329;51.384;7.122;2022-07-18T05:20:59;3.88;;;2.67;;
2638;SDS011;1329;51.384;7.122;2022-07-18T05:23:26;4.93;;;2.92;;
2638;SDS011;1329;51.384;7.122;2022-07-18T05:25:54;4.10;;;2.40;;
2638;SDS011;1329;51.384;7.122;2022-07-18T05:28:21;2.78;;;2.05;;
2638;SDS011;1329;51.384;7.122;2022-07-18T05:30:49;1.90;;;1.70;;
2638;SDS011;1329;51.384;7.122;2022-07-18T05:33:19;2.95;;;2.00;;
2638;SDS011;1329;51.384;7.122;2022-07-18T05:35:48;2.95;;;2.10;;
2638;SDS011;1329;51.384;7.122;2022-07-18T05:38:15;4.85;;;2.58;;
2638;SDS011;1329;51.384;7.122;2022-07-18T05:40:43;3.80;;;2.70;;
2638;SDS011;1329;51.384;7.122;2022-07-18T05:43:10;4.38;;;2.38;;
2638;SDS011;1329;51.384;7.122;2022-07-18T05:45:38;2.60;;;2.05;;
2638;SDS011;1329;51.384;7.122;2022-07-18T05:48:06;2.88;;;2.30;;
2638;SDS011;1329;51.384;7.122;2022-07-18T05:50:34;3.35;;;2.50;;
2638;SDS011;1329;51.384;7.122;2022-07-18T05:53:03;3.78;;;2.58;;
2638;SDS011;1329;51.384;7.122;2022-07-18T05:55:31;3.10;;;2.22;;
2638;SDS011;1329;51.384;7.122;2022-07-18T05:57:59;3.42;;;2.33;;
2638;SDS011;1329;51.384;7.122;2022-07-18T06:00:26;2.15;;;1.88;;
2638;SDS011;1329;51.384;7.122;2022-07-18T06:02:53;1.90;;;1.70;;
2638;SDS011;1329;51.384;7.122;2022-07-18T06:05:21;2.25;;;1.70;;
2638;SDS011;1329;51.384;7.122;2022-07-18T06:07:49;2.03;;;1.30;;
2638;SDS011;1329;51.384;7.122;2022-07-18T06:10:19;2.28;;;1.40;;
2638;SDS011;1329;51.384;7.122;2022-07-18T06:12:50;1.30;;;1.20;;
2638;SDS011;1329;51.384;7.122;2022-07-18T06:15:19;1.95;;;0.93;;
2638;SDS011;1329;51.384;7.122;2022-07-18T06:17:47;1.77;;;1.27;;
2638;SDS011;1329;51.384;7.122;2022-07-18T06:20:14;1.88;;;1.10;;
2638;SDS011;1329;51.384;7.122;2022-07-18T06:22:42;1.50;;;1.10;;
2638;SDS011;1329;51.384;7.122;2022-07-18T06:25:10;1.38;;;1.10;;
2638;SDS011;1329;51.384;7.122;2022-07-18T06:27:40;1.55;;;1.15;;
2638;SDS011;1329;51.384;7.122;2022-07-18T06:30:08;1.33;;;1.00;;
2638;SDS011;1329;51.384;7.122;2022-07-18T06:32:36;1.05;;;0.90;;
2638;SDS011;1329;51.384;7.122;2022-07-18T06:35:04;1.52;;;1.05;;
2638;SDS011;1329;51.384;7.122;2022-07-18T06:37:33;1.08;;;0.95;;
2638;SDS011;1329;51.384;7.122;2022-07-18T06:40:01;1.58;;;1.05;;
2638;SDS011;1329;51.384;7.122;2022-07-18T06:42:30;1.20;;;1.10;;
2638;SDS011;1329;51.384;7.122;2022-07-18T06:44:59;1.48;;;1.00;;
2638;SDS011;1329;51.384;7.122;2022-07-18T06:47:29;1.73;;;1.20;;
2638;SDS011;1329;51.384;7.122;2022-07-18T06:49:59;1.38;;;1.10;;
2638;SDS011;1329;51.384;7.122;2022-07-18T06:52:27;1.65;;;0.95;;
2638;SDS011;1329;51.384;7.122;2022-07-18T06:54:55;1.10;;;0.90;;
2638;SDS011;1329;51.384;7.122;2022-07-18T06:57:23;2.72;;;0.90;;
2638;SDS011;1329;51.384;7.122;2022-07-18T06:59:50;2.38;;;1.20;;
2638;SDS011;1329;51.384;7.122;2022-07-18T07:02:20;2.85;;;1.75;;
2638;SDS011;1329;51.384;7.122;2022-07-18T07:04:51;2.15;;;1.45;;
2638;SDS011;1329;51.384;7.122;2022-07-18T07:07:28;1.83;;;1.02;;
2638;SDS011;1329;51.384;7.122;2022-07-18T07:09:56;2.00;;;1.10;;
2638;SDS011;1329;51.384;7.122;2022-07-18T07:12:25;1.48;;;1.05;;
2638;SDS011;1329;51.384;7.122;2022-07-18T07:14:52;1.33;;;0.88;;
2638;SDS011;1329;51.384;7.122;2022-07-18T07:17:23;1.40;;;1.02;;
2638;SDS011;1329;51.384;7.122;2022-07-18T07:19:50;1.35;;;1.10;;
2638;SDS011;1329;51.384;7.122;2022-07-18T07:22:18;1.10;;;0.95;;
2638;SDS011;1329;51.384;7.122;2022-07-18T07:24:46;1.40;;;1.05;;
2638;SDS011;1329;51.384;7.122;2022-07-18T07:27:14;1.23;;;0.95;;
2638;SDS011;1329;51.384;7.122;2022-07-18T07:29:42;1.63;;;1.10;;
2638;SDS011;1329;51.384;7.122;2022-07-18T07:32:11;1.50;;;1.00;;
2638;SDS011;1329;51.384;7.122;2022-07-18T07:34:41;1.10;;;0.90;;
2638;SDS011;1329;51.384;7.122;2022-07-18T07:37:08;1.10;;;0.98;;
2638;SDS011;1329;51.384;7.122;2022-07-18T07:39:39;1.40;;;1.10;;
2638;SDS011;1329;51.384;7.122;2022-07-18T07:42:06;2.97;;;1.25;;
2638;SDS011;1329;51.384;7.122;2022-07-18T07:44:34;1.60;;;1.10;;
2638;SDS011;1329;51.384;7.122;2022-07-18T07:47:02;1.05;;;1.02;;
2638;SDS011;1329;51.384;7.122;2022-07-18T07:49:32;1.23;;;1.00;;
2638;SDS011;1329;51.384;7.122;2022-07-18T07:52:07;2.33;;;1.00;;
2638;SDS011;1329;51.384;7.122;2022-07-18T07:54:45;1.30;;;1.00;;
2638;SDS011;1329;51.384;7.122;2022-07-18T07:57:18;2.03;;;1.02;;
2638;SDS011;1329;51.384;7.122;2022-07-18T07:59:49;0.98;;;0.90;;
2638;SDS011;1329;51.384;7.122;2022-07-18T08:02:19;1.25;;;1.00;;
2638;SDS011;1329;51.384;7.122;2022-07-18T08:04:48;1.13;;;0.90;;
2638;SDS011;1329;51.384;7.122;2022-07-18T08:07:18;2.10;;;1.13;;
2638;SDS011;1329;51.384;7.122;2022-07-18T08:09:48;2.63;;;1.20;;
2638;SDS011;1329;51.384;7.122;2022-07-18T08:12:18;1.52;;;1.30;;
2638;SDS011;1329;51.384;7.122;2022-07-18T08:14:46;1.90;;;1.00;;
2638;SDS011;1329;51.384;7.122;2022-07-18T08:17:24;3.00;;;1.27;;
2638;SDS011;1329;51.384;7.122;2022-07-18T08:19:59;1.95;;;1.25;;
2638;SDS011;1329;51.384;7.122;2022-07-18T08:22:27;1.15;;;1.00;;
2638;SDS011;1329;51.384;7.122;2022-07-18T08:25:10;1.10;;;1.00;;
2638;SDS011;1329;51.384;7.122;2022-07-18T08:27:40;1.20;;;1.10;;
2638;SDS011;1329;51.384;7.122;2022-07-18T08:30:10;1.52;;;0.90;;
2638;SDS011;1329;51.384;7.122;2022-07-18T08:32:41;1.80;;;1.00;;
2638;SDS011;1329;51.384;7.122;2022-07-18T08:35:10;1.70;;;0.98;;
2638;SDS011;1329;51.384;7.122;2022-07-18T08:37:49;1.50;;;1.00;;
2638;SDS011;1329;51.384;7.122;2022-07-18T08:40:20;1.33;;;0.80;;
2638;SDS011;1329;51.384;7.122;2022-07-18T08:42:48;1.70;;;1.00;;
2638;SDS011;1329;51.384;7.122;2022-07-18T08:45:21;1.85;;;1.00;;
2638;SDS011;1329;51.384;7.122;2022-07-18T08:47:51;1.17;;;1.00;;
2638;SDS011;1329;51.384;7.122;2022-07-18T08:50:21;1.15;;;1.02;;
2638;SDS011;1329;51.384;7.122;2022-07-18T08:52:49;0.85;;;0.85;;
2638;SDS011;1329;51.384;7.122;2022-07-18T08:55:18;2.45;;;1.08;;
2638;SDS011;1329;51.384;7.122;2022-07-18T08:57:52;0.80;;;0.80;;
2638;SDS011;1329;51.384;7.122;2022-07-18T09:00:26;2.03;;;0.90;;
2638;SDS011;1329;51.384;7.122;2022-07-18T09:03:01;1.38;;;0.77;;
2638;SDS011;1329;51.384;7.122;2022-07-18T09:05:36;1.10;;;0.90;;
2638;SDS011;1329;51.384;7.122;2022-07-18T09:08:09;1.38;;;0.80;;
2638;SDS011;1329;51.384;7.122;2022-07-18T09:10:51;1.58;;;1.00;;
2638;SDS011;1329;51.384;7.122;2022-07-18T09:13:35;1.00;;;0.85;;
2638;SDS011;1329;51.384;7.122;2022-07-18T09:16:21;0.90;;;0.70;;
2638;SDS011;1329;51.384;7.122;2022-07-18T09:19:04;0.80;;;0.80;;
2638;SDS011;1329;51.384;7.122;2022-07-18T09:21:49;1.00;;;0.88;;
2638;SDS011;1329;51.384;7.122;2022-07-18T09:27:41;1.00;;;0.90;;
2638;SDS011;1329;51.384;7.122;2022-07-18T09:30:27;0.95;;;0.85;;
2638;SDS011;1329;51.384;7.122;2022-07-18T09:33:08;1.92;;;0.90;;
2638;SDS011;1329;51.384;7.122;2022-07-18T09:36:02;1.40;;;0.98;;
2638;SDS011;1329;51.384;7.122;2022-07-18T09:38:37;2.88;;;1.00;;
2638;SDS011;1329;51.384;7.122;2022-07-18T09:41:15;1.35;;;1.10;;
2638;SDS011;1329;51.384;7.122;2022-07-18T09:44:13;2.83;;;1.10;;
2638;SDS011;1329;51.384;7.122;2022-07-18T09:49:57;1.17;;;0.98;;
2638;SDS011;1329;51.384;7.122;2022-07-18T09:52:38;0.85;;;0.85;;
2638;SDS011;1329;51.384;7.122;2022-07-18T09:55:21;1.55;;;1.13;;
2638;SDS011;1329;51.384;7.122;2022-07-18T09:58:07;1.17;;;0.98;;
2638;SDS011;1329;51.384;7.122;2022-07-18T10:00:52;2.08;;;1.17;;
2638;SDS011;1329;51.384;7.122;2022-07-18T10:03:52;1.83;;;1.20;;
2638;SDS011;1329;51.384;7.122;2022-07-18T10:06:31;1.77;;;0.90;;
2638;SDS011;1329;51.384;7.122;2022-07-18T10:09:12;1.23;;;1.02;;
2638;SDS011;1329;51.384;7.122;2022-07-18T10:11:46;0.90;;;0.80;;
2638;SDS011;1329;51.384;7.122;2022-07-18T10:14:23;1.70;;;0.90;;
2638;SDS011;1329;51.384;7.122;2022-07-18T10:16:56;1.15;;;1.00;;
2638;SDS011;1329;51.384;7.122;2022-07-18T10:19:35;2.67;;;1.20;;
2638;SDS011;1329;51.384;7.122;2022-07-18T10:22:14;1.13;;;1.00;;
2638;SDS011;1329;51.384;7.122;2022-07-18T10:24:49;1.27;;;1.13;;
2638;SDS011;1329;51.384;7.122;2022-07-18T10:27:20;1.30;;;1.00;;
2638;SDS011;1329;51.384;7.122;2022-07-18T10:30:11;1.23;;;1.00;;
2638;SDS011;1329;51.384;7.122;2022-07-18T10:32:53;2.00;;;1.17;;
2638;SDS011;1329;51.384;7.122;2022-07-18T10:38:32;1.88;;;1.00;;
2638;SDS011;1329;51.384;7.122;2022-07-18T10:41:06;2.05;;;0.93;;
2638;SDS011;1329;51.384;7.122;2022-07-18T10:43:41;1.23;;;1.13;;
2638;SDS011;1329;51.384;7.122;2022-07-18T10:46:12;1.65;;;1.10;;
2638;SDS011;1329;51.384;7.122;2022-07-18T10:48:50;1.58;;;1.20;;
2638;SDS011;1329;51.384;7.122;2022-07-18T10:54:16;1.65;;;1.33;;
2638;SDS011;1329;51.384;7.122;2022-07-18T10:57:05;2.15;;;1.20;;
2638;SDS011;1329;51.384;7.122;2022-07-18T11:02:48;1.63;;;1.20;;
2638;SDS011;1329;51.384;7.122;2022-07-18T11:05:38;2.55;;;1.40;;
2638;SDS011;1329;51.384;7.122;2022-07-18T11:08:19;1.90;;;1.33;;
2638;SDS011;1329;51.384;7.122;2022-07-18T11:11:04;1.27;;;1.10;;
2638;SDS011;1329;51.384;7.122;2022-07-18T11:13:48;2.55;;;1.30;;
2638;SDS011;1329;51.384;7.122;2022-07-18T11:16:32;2.00;;;1.50;;
2638;SDS011;1329;51.384;7.122;2022-07-18T11:19:18;1.90;;;1.38;;
2638;SDS011;1329;51.384;7.122;2022-07-18T11:21:58;2.15;;;1.40;;
2638;SDS011;1329;51.384;7.122;2022-07-18T11:24:37;3.10;;;1.20;;
2638;SDS011;1329;51.384;7.122;2022-07-18T11:27:18;2.17;;;1.40;;
2638;SDS011;1329;51.384;7.122;2022-07-18T11:29:52;1.92;;;1.30;;
2638;SDS011;1329;51.384;7.122;2022-07-18T11:32:25;1.45;;;1.35;;
2638;SDS011;1329;51.384;7.122;2022-07-18T11:34:55;2.55;;;1.38;;
2638;SDS011;1329;51.384;7.122;2022-07-18T11:37:23;1.58;;;1.40;;
2638;SDS011;1329;51.384;7.122;2022-07-18T11:40:03;2.20;;;1.00;;
2638;SDS011;1329;51.384;7.122;2022-07-18T11:42:36;1.50;;;1.30;;
2638;SDS011;1329;51.384;7.122;2022-07-18T11:45:05;1.35;;;1.20;;
2638;SDS011;1329;51.384;7.122;2022-07-18T11:47:54;1.40;;;1.23;;
2638;SDS011;1329;51.384;7.122;2022-07-18T11:50:33;1.33;;;1.10;;
2638;SDS011;1329;51.384;7.122;2022-07-18T11:53:07;2.85;;;1.30;;
2638;SDS011;1329;51.384;7.122;2022-07-18T11:55:44;1.63;;;1.20;;
2638;SDS011;1329;51.384;7.122;2022-07-18T11:58:17;2.05;;;1.30;;
2638;SDS011;1329;51.384;7.122;2022-07-18T12:01:09;1.27;;;1.17;;
2638;SDS011;1329;51.384;7.122;2022-07-18T12:03:44;1.98;;;1.27;;
2638;SDS011;1329;51.384;7.122;2022-07-18T12:06:26;3.58;;;1.45;;
2638;SDS011;1329;51.384;7.122;2022-07-18T12:09:03;1.20;;;1.10;;
2638;SDS011;1329;51.384;7.122;2022-07-18T12:11:44;1.40;;;1.17;;
2638;SDS011;1329;51.384;7.122;2022-07-18T12:14:21;1.63;;;1.25;;
2638;SDS011;1329;51.384;7.122;2022-07-18T12:16:57;1.85;;;1.30;;
2638;SDS011;1329;51.384;7.122;2022-07-18T12:19:45;2.78;;;1.40;;
2638;SDS011;1329;51.384;7.122;2022-07-18T12:25:59;2.55;;;1.30;;
2638;SDS011;1329;51.384;7.122;2022-07-18T12:28:42;2.17;;;1.38;;
2638;SDS011;1329;51.384;7.122;2022-07-18T12:31:37;1.98;;;1.30;;
2638;SDS011;1329;51.384;7.122;2022-07-18T12:34:13;2.92;;;1.23;;
2638;SDS011;1329;51.384;7.122;2022-07-18T12:37:06;2.53;;;1.10;;
2638;SDS011;1329;51.384;7.122;2022-07-18T12:40:27;1.63;;;1.25;;
2638;SDS011;1329;51.384;7.122;2022-07-18T12:43:24;3.42;;;1.20;;
2638;SDS011;1329;51.384;7.122;2022-07-18T12:46:24;1.20;;;1.10;;
2638;SDS011;1329;51.384;7.122;2022-07-18T12:52:14;1.80;;;1.20;;
2638;SDS011;1329;51.384;7.122;2022-07-18T12:55:00;1.00;;;0.90;;
2638;SDS011;1329;51.384;7.122;2022-07-18T12:57:33;1.92;;;1.30;;
2638;SDS011;1329;51.384;7.122;2022-07-18T13:00:03;1.60;;;1.27;;
2638;SDS011;1329;51.384;7.122;2022-07-18T13:02:37;2.90;;;1.30;;
2638;SDS011;1329;51.384;7.122;2022-07-18T13:05:34;3.53;;;1.10;;
2638;SDS011;1329;51.384;7.122;2022-07-18T13:08:13;2.53;;;1.10;;
2638;SDS011;1329;51.384;7.122;2022-07-18T13:10:54;1.52;;;1.05;;
2638;SDS011;1329;51.384;7.122;2022-07-18T13:13:57;2.00;;;1.02;;
2638;SDS011;1329;51.384;7.122;2022-07-18T13:16:38;2.03;;;0.90;;
2638;SDS011;1329;51.384;7.122;2022-07-18T13:19:28;1.05;;;0.85;;
2638;SDS011;1329;51.384;7.122;2022-07-18T13:22:06;1.45;;;1.10;;
2638;SDS011;1329;51.384;7.122;2022-07-18T13:24:37;1.13;;;1.00;;
2638;SDS011;1329;51.384;7.122;2022-07-18T13:27:23;1.30;;;1.10;;
2638;SDS011;1329;51.384;7.122;2022-07-18T13:30:01;1.70;;;1.15;;
2638;SDS011;1329;51.384;7.122;2022-07-18T13:32:42;1.63;;;1.00;;
2638;SDS011;1329;51.384;7.122;2022-07-18T13:35:20;1.20;;;0.95;;
2638;SDS011;1329;51.384;7.122;2022-07-18T13:37:57;1.65;;;1.13;;
2638;SDS011;1329;51.384;7.122;2022-07-18T13:40:59;1.58;;;1.30;;
2638;SDS011;1329;51.384;7.122;2022-07-18T13:43:47;1.40;;;1.05;;
2638;SDS011;1329;51.384;7.122;2022-07-18T13:46:33;2.05;;;1.40;;
2638;SDS011;1329;51.384;7.122;2022-07-18T13:49:28;2.88;;;1.27;;
2638;SDS011;1329;51.384;7.122;2022-07-18T13:52:23;1.88;;;1.10;;
2638;SDS011;1329;51.384;7.122;2022-07-18T13:55:07;1.75;;;1.27;;
2638;SDS011;1329;51.384;7.122;2022-07-18T13:57:49;2.55;;;1.23;;
2638;SDS011;1329;51.384;7.122;2022-07-18T14:00:49;1.30;;;1.20;;
2638;SDS011;1329;51.384;7.122;2022-07-18T14:03:34;3.58;;;1.23;;
2638;SDS011;1329;51.384;7.122;2022-07-18T14:06:15;1.30;;;1.10;;
2638;SDS011;1329;51.384;7.122;2022-07-18T14:11:37;1.98;;;0.90;;
2638;SDS011;1329;51.384;7.122;2022-07-18T14:14:43;2.05;;;1.20;;
2638;SDS011;1329;51.384;7.122;2022-07-18T14:20:56;2.10;;;1.10;;
2638;SDS011;1329;51.384;7.122;2022-07-18T14:23:31;1.38;;;1.10;;
2638;SDS011;1329;51.384;7.122;2022-07-18T14:26:08;1.73;;;1.00;;
2638;SDS011;1329;51.384;7.122;2022-07-18T14:29:04;1.83;;;1.15;;
2638;SDS011;1329;51.384;7.122;2022-07-18T14:31:38;2.08;;;1.10;;
2638;SDS011;1329;51.384;7.122;2022-07-18T14:34:20;1.45;;;1.10;;
2638;SDS011;1329;51.384;7.122;2022-07-18T14:36:55;2.50;;;1.13;;
2638;SDS011;1329;51.384;7.122;2022-07-18T14:39:44;1.30;;;1.13;;
2638;SDS011;1329;51.384;7.122;2022-07-18T14:42:29;1.65;;;1.08;;
2638;SDS011;1329;51.384;7.122;2022-07-18T14:48:18;1.15;;;1.00;;
2638;SDS011;1329;51.384;7.122;2022-07-18T14:50:52;1.58;;;1.00;;
2638;SDS011;1329;51.384;7.122;2022-07-18T14:53:43;1.80;;;1.15;;
2638;SDS011;1329;51.384;7.122;2022-07-18T14:56:17;2.13;;;1.00;;
2638;SDS011;1329;51.384;7.122;2022-07-18T14:58:50;1.08;;;0.98;;
2638;SDS011;1329;51.384;7.122;2022-07-18T15:01:33;1.88;;;1.10;;
2638;SDS011;1329;51.384;7.122;2022-07-18T15:04:10;1.77;;;1.02;;
2638;SDS011;1329;51.384;7.122;2022-07-18T15:06:46;1.92;;;1.30;;
2638;SDS011;1329;51.384;7.122;2022-07-18T15:09:41;1.65;;;1.00;;
2638;SDS011;1329;51.384;7.122;2022-07-18T15:13:02;1.40;;;1.02;;
2638;SDS011;1329;51.384;7.122;2022-07-18T15:15:58;1.67;;;1.17;;
2638;SDS011;1329;51.384;7.122;2022-07-18T15:18:54;2.90;;;1.10;;
2638;SDS011;1329;51.384;7.122;2022-07-18T15:21:45;3.58;;;1.30;;
2638;SDS011;1329;51.384;7.122;2022-07-18T15:27:30;2.08;;;1.40;;
2638;SDS011;1329;51.384;7.122;2022-07-18T15:30:31;2.85;;;1.00;;
2638;SDS011;1329;51.384;7.122;2022-07-18T15:33:25;1.75;;;1.30;;
2638;SDS011;1329;51.384;7.122;2022-07-18T15:36:48;1.65;;;0.98;;
2638;SDS011;1329;51.384;7.122;2022-07-18T15:40:13;2.63;;;1.13;;
2638;SDS011;1329;51.384;7.122;2022-07-18T15:46:16;2.15;;;1.00;;
2638;SDS011;1329;51.384;7.122;2022-07-18T15:48:51;1.60;;;1.15;;
2638;SDS011;1329;51.384;7.122;2022-07-18T15:51:56;1.65;;;1.20;;
2638;SDS011;1329;51.384;7.122;2022-07-18T15:54:38;1.20;;;1.10;;
2638;SDS011;1329;51.384;7.122;2022-07-18T15:57:41;1.85;;;1.13;;
2638;SDS011;1329;51.384;7.122;2022-07-18T16:00:25;1.10;;;1.00;;
2638;SDS011;1329;51.384;7.122;2022-07-18T16:03:29;2.53;;;1.02;;
2638;SDS011;1329;51.384;7.122;2022-07-18T16:06:08;0.80;;;0.80;;
2638;SDS011;1329;51.384;7.122;2022-07-18T16:09:00;1.92;;;1.17;;
2638;SDS011;1329;51.384;7.122;2022-07-18T16:11:41;2.17;;;1.20;;
2638;SDS011;1329;51.384;7.122;2022-07-18T16:14:38;1.30;;;1.20;;
2638;SDS011;1329;51.384;7.122;2022-07-18T16:17:55;2.80;;;1.20;;
2638;SDS011;1329;51.384;7.122;2022-07-18T16:24:50;1.40;;;1.10;;
2638;SDS011;1329;51.384;7.122;2022-07-18T16:28:27;1.05;;;0.95;;
2638;SDS011;1329;51.384;7.122;2022-07-18T16:35:22;1.77;;;1.10;;
2638;SDS011;1329;51.384;7.122;2022-07-18T16:38:47;3.20;;;1.02;;
2638;SDS011;1329;51.384;7.122;2022-07-18T16:42:09;2.17;;;1.05;;
2638;SDS011;1329;51.384;7.122;2022-07-18T16:44:58;1.58;;;1.05;;
2638;SDS011;1329;51.384;7.122;2022-07-18T16:47:37;2.55;;;1.30;;
2638;SDS011;1329;51.384;7.122;2022-07-18T16:50:22;1.83;;;1.20;;
2638;SDS011;1329;51.384;7.122;2022-07-18T16:53:07;1.60;;;1.20;;